首页
METAR-TAF:

METAR-TAF

机场 :

阿拉木图国际机场

阿拉木圖, 哈萨克斯坦

纬度: 43-14N, 经度: 076-56E, 海拔: 847米

当前天气观测

该预报发布于17分钟前的05:00 UTC
风速6节,风向西转西北
温度 -11°C
湿度 66%
气压 1031 hPa
能见度10公里或以上
少量云层高于20000英尺

METAR: UAAA 140500Z 29003MPS 9999 FEW200 M11/M16 Q1031 R88/91//50 NOSIG

时间: 11:17 (05:17 UTC)

预报

该预报发布于6小时和17分钟前的23:00 UTC
预报有效从14日的 00点(UTC)到 14日的 24点(UTC)
风速10节,风向东北
能見度: 1500
散云层高于3000英尺
多云层高于10000英尺
轻雾
短暂存在
从 14日的 00点(UTC)到 14日的 03点(UTC)
能見度: 0800
冻雾
成为
从 14日的 04点(UTC)到 14日的 05点(UTC)
能见度10公里或以上
短暂存在
从 14日的 11点(UTC)到 14日的 16点(UTC)
能見度: 1500
轻雾
短暂存在
从 14日的 16点(UTC)到 14日的 24点(UTC)
能見度: 0500
散云层高于300英尺
冻雾

TAF: UAAA 132300Z 1400/1424 04005MPS 1500 BR SCT030 BKN100 TXM06/1408Z TNM18/1401Z TEMPO 1400/1403 0800 FZFG BECMG 1404/1405 9999 NSW TEMPO 1411/1416 1500 BR TEMPO 1416/1424 0500 FZFG SCT003

超过4000个机场的气象观测和天气预报(METAR&TAF报告)。

可查询的气象台以黄色和红色小点在地图上表示。

将鼠标移到小点上方,可查看气象台名称。

然后点击查看天气观测和预报。

如需切换地图:点击带黑十字的绿色按钮放大地图;点击带横线的绿色按钮缩小地图;或者点击绿色箭头查看邻近地区的地图。


METAR-TAF: